sensor_id;sensor_type;location;lat;lon;timestamp;temperature;humidity
22249;DHT22;67538;52.180;5.646;2024-03-06T00:00:16;6.50;99.90
22249;DHT22;67538;52.180;5.646;2024-03-06T00:02:43;6.60;99.90
22249;DHT22;67538;52.180;5.646;2024-03-06T00:05:12;6.60;99.90
22249;DHT22;67538;52.180;5.646;2024-03-06T00:07:39;6.60;99.90
22249;DHT22;67538;52.180;5.646;2024-03-06T00:10:06;6.60;99.90
22249;DHT22;67538;52.180;5.646;2024-03-06T00:12:34;6.60;99.90
22249;DHT22;67538;52.180;5.646;2024-03-06T00:15:01;6.60;99.90
22249;DHT22;67538;52.180;5.646;2024-03-06T00:17:29;6.60;99.90
22249;DHT22;67538;52.180;5.646;2024-03-06T00:19:56;6.60;99.90
22249;DHT22;67538;52.180;5.646;2024-03-06T00:22:24;6.60;99.90
22249;DHT22;67538;52.180;5.646;2024-03-06T00:24:51;6.60;99.90
22249;DHT22;67538;52.180;5.646;2024-03-06T00:27:18;6.60;99.90
22249;DHT22;67538;52.180;5.646;2024-03-06T00:29:45;6.60;99.90
22249;DHT22;67538;52.180;5.646;2024-03-06T00:32:12;6.50;99.90
22249;DHT22;67538;52.180;5.646;2024-03-06T00:34:39;6.50;99.90
22249;DHT22;67538;52.180;5.646;2024-03-06T00:37:06;6.50;99.90
22249;DHT22;67538;52.180;5.646;2024-03-06T00:39:35;6.50;99.90
22249;DHT22;67538;52.180;5.646;2024-03-06T00:42:03;6.40;99.90
22249;DHT22;67538;52.180;5.646;2024-03-06T00:44:30;6.40;99.90
22249;DHT22;67538;52.180;5.646;2024-03-06T00:46:57;6.40;99.90
22249;DHT22;67538;52.180;5.646;2024-03-06T00:49:24;6.40;99.90
22249;DHT22;67538;52.180;5.646;2024-03-06T00:51:51;6.40;99.90
22249;DHT22;67538;52.180;5.646;2024-03-06T00:54:18;6.40;99.90
22249;DHT22;67538;52.180;5.646;2024-03-06T00:56:47;6.30;99.90
22249;DHT22;67538;52.180;5.646;2024-03-06T00:59:14;6.30;99.90
22249;DHT22;67538;52.180;5.646;2024-03-06T01:01:41;6.20;99.90
22249;DHT22;67538;52.180;5.646;2024-03-06T01:04:08;6.20;99.90
22249;DHT22;67538;52.180;5.646;2024-03-06T01:06:35;6.20;99.90
22249;DHT22;67538;52.180;5.646;2024-03-06T01:09:02;6.20;99.90
22249;DHT22;67538;52.180;5.646;2024-03-06T01:11:29;6.20;99.90
22249;DHT22;67538;52.180;5.646;2024-03-06T01:13:57;6.20;99.90
22249;DHT22;67538;52.180;5.646;2024-03-06T01:16:25;6.20;99.90
22249;DHT22;67538;52.180;5.646;2024-03-06T01:18:52;6.20;99.90
22249;DHT22;67538;52.180;5.646;2024-03-06T01:21:19;6.20;99.90
22249;DHT22;67538;52.180;5.646;2024-03-06T01:23:46;6.10;99.90
22249;DHT22;67538;52.180;5.646;2024-03-06T01:26:13;6.10;99.90
22249;DHT22;67538;52.180;5.646;2024-03-06T01:28:40;6.10;99.90
22249;DHT22;67538;52.180;5.646;2024-03-06T01:31:09;6.00;99.90
22249;DHT22;67538;52.180;5.646;2024-03-06T01:33:36;5.90;99.90
22249;DHT22;67538;52.180;5.646;2024-03-06T01:36:03;5.90;99.90
22249;DHT22;67538;52.180;5.646;2024-03-06T01:38:30;5.90;99.90
22249;DHT22;67538;52.180;5.646;2024-03-06T01:40:57;5.90;99.90
22249;DHT22;67538;52.180;5.646;2024-03-06T01:43:25;5.80;99.90
22249;DHT22;67538;52.180;5.646;2024-03-06T01:45:53;5.80;99.90
22249;DHT22;67538;52.180;5.646;2024-03-06T01:48:24;5.70;99.90
22249;DHT22;67538;52.180;5.646;2024-03-06T01:50:53;5.70;99.90
22249;DHT22;67538;52.180;5.646;2024-03-06T01:53:21;5.70;99.90
22249;DHT22;67538;52.180;5.646;2024-03-06T01:55:51;5.70;99.90
22249;DHT22;67538;52.180;5.646;2024-03-06T01:58:18;5.60;99.90
22249;DHT22;67538;52.180;5.646;2024-03-06T02:00:47;5.60;99.90
22249;DHT22;67538;52.180;5.646;2024-03-06T02:03:15;5.60;99.90
22249;DHT22;67538;52.180;5.646;2024-03-06T02:05:44;5.60;99.90
22249;DHT22;67538;52.180;5.646;2024-03-06T02:08:11;5.60;99.90
22249;DHT22;67538;52.180;5.646;2024-03-06T02:10:38;5.70;99.90
22249;DHT22;67538;52.180;5.646;2024-03-06T02:13:06;5.70;99.90
22249;DHT22;67538;52.180;5.646;2024-03-06T02:15:35;5.80;99.90
22249;DHT22;67538;52.180;5.646;2024-03-06T02:18:05;5.80;99.90
22249;DHT22;67538;52.180;5.646;2024-03-06T02:20:33;5.80;99.90
22249;DHT22;67538;52.180;5.646;2024-03-06T02:23:00;5.80;99.90
22249;DHT22;67538;52.180;5.646;2024-03-06T02:25:28;5.80;99.90
22249;DHT22;67538;52.180;5.646;2024-03-06T02:27:55;5.80;99.90
22249;DHT22;67538;52.180;5.646;2024-03-06T02:30:22;5.80;99.90
22249;DHT22;67538;52.180;5.646;2024-03-06T02:32:49;5.70;99.90
22249;DHT22;67538;52.180;5.646;2024-03-06T02:35:17;5.80;99.90
22249;DHT22;67538;52.180;5.646;2024-03-06T02:37:45;5.80;99.90
22249;DHT22;67538;52.180;5.646;2024-03-06T02:40:12;5.70;99.90
22249;DHT22;67538;52.180;5.646;2024-03-06T02:42:39;5.70;99.90
22249;DHT22;67538;52.180;5.646;2024-03-06T02:45:07;5.70;99.90
22249;DHT22;67538;52.180;5.646;2024-03-06T02:47:34;5.70;99.90
22249;DHT22;67538;52.180;5.646;2024-03-06T02:50:01;5.70;99.90
22249;DHT22;67538;52.180;5.646;2024-03-06T02:52:28;5.60;99.90
22249;DHT22;67538;52.180;5.646;2024-03-06T02:54:57;5.60;99.90
22249;DHT22;67538;52.180;5.646;2024-03-06T02:57:26;5.50;99.90
22249;DHT22;67538;52.180;5.646;2024-03-06T02:59:54;5.50;99.90
22249;DHT22;67538;52.180;5.646;2024-03-06T03:02:21;5.50;99.90
22249;DHT22;67538;52.180;5.646;2024-03-06T03:04:49;5.40;99.90
22249;DHT22;67538;52.180;5.646;2024-03-06T03:07:16;5.40;99.90
22249;DHT22;67538;52.180;5.646;2024-03-06T03:09:43;5.40;99.90
22249;DHT22;67538;52.180;5.646;2024-03-06T03:12:12;5.40;99.90
22249;DHT22;67538;52.180;5.646;2024-03-06T03:14:40;5.30;99.90
22249;DHT22;67538;52.180;5.646;2024-03-06T03:17:07;5.20;99.90
22249;DHT22;67538;52.180;5.646;2024-03-06T03:19:34;5.10;99.90
22249;DHT22;67538;52.180;5.646;2024-03-06T03:22:01;5.10;99.90
22249;DHT22;67538;52.180;5.646;2024-03-06T03:24:29;5.00;99.90
22249;DHT22;67538;52.180;5.646;2024-03-06T03:26:57;5.00;99.90
22249;DHT22;67538;52.180;5.646;2024-03-06T03:29:25;4.90;99.90
22249;DHT22;67538;52.180;5.646;2024-03-06T03:31:52;4.90;99.90
22249;DHT22;67538;52.180;5.646;2024-03-06T03:34:19;4.90;99.90
22249;DHT22;67538;52.180;5.646;2024-03-06T03:36:46;4.90;99.90
22249;DHT22;67538;52.180;5.646;2024-03-06T03:39:14;4.80;99.90
22249;DHT22;67538;52.180;5.646;2024-03-06T03:41:45;4.80;99.90
22249;DHT22;67538;52.180;5.646;2024-03-06T03:44:13;4.80;99.90
22249;DHT22;67538;52.180;5.646;2024-03-06T03:46:41;4.80;99.90
22249;DHT22;67538;52.180;5.646;2024-03-06T03:49:09;4.90;99.90
22249;DHT22;67538;52.180;5.646;2024-03-06T03:51:36;4.80;99.90
22249;DHT22;67538;52.180;5.646;2024-03-06T03:54:04;4.80;99.90
22249;DHT22;67538;52.180;5.646;2024-03-06T03:56:31;4.70;99.90
22249;DHT22;67538;52.180;5.646;2024-03-06T03:58:59;4.80;99.90
22249;DHT22;67538;52.180;5.646;2024-03-06T04:01:26;4.70;99.90
22249;DHT22;67538;52.180;5.646;2024-03-06T04:03:54;4.70;99.90
22249;DHT22;67538;52.180;5.646;2024-03-06T04:06:21;4.50;99.90
22249;DHT22;67538;52.180;5.646;2024-03-06T04:08:48;4.50;99.90
22249;DHT22;67538;52.180;5.646;2024-03-06T04:11:15;4.40;99.90
22249;DHT22;67538;52.180;5.646;2024-03-06T04:13:42;4.40;99.90
22249;DHT22;67538;52.180;5.646;2024-03-06T04:16:09;4.30;99.90
22249;DHT22;67538;52.180;5.646;2024-03-06T04:18:37;4.30;99.90
22249;DHT22;67538;52.180;5.646;2024-03-06T04:21:06;4.20;99.90
22249;DHT22;67538;52.180;5.646;2024-03-06T04:23:33;4.10;99.90
22249;DHT22;67538;52.180;5.646;2024-03-06T04:26:01;4.10;99.90
22249;DHT22;67538;52.180;5.646;2024-03-06T04:28:29;4.00;99.90
22249;DHT22;67538;52.180;5.646;2024-03-06T04:30:56;4.00;99.90
22249;DHT22;67538;52.180;5.646;2024-03-06T04:33:23;3.90;99.90
22249;DHT22;67538;52.180;5.646;2024-03-06T04:35:50;4.00;99.90
22249;DHT22;67538;52.180;5.646;2024-03-06T04:38:19;3.90;99.90
22249;DHT22;67538;52.180;5.646;2024-03-06T04:40:46;3.90;99.90
22249;DHT22;67538;52.180;5.646;2024-03-06T04:43:13;3.80;99.90
22249;DHT22;67538;52.180;5.646;2024-03-06T04:45:40;3.70;99.90
22249;DHT22;67538;52.180;5.646;2024-03-06T04:48:07;3.70;99.90
22249;DHT22;67538;52.180;5.646;2024-03-06T04:50:34;3.60;99.90
22249;DHT22;67538;52.180;5.646;2024-03-06T04:53:01;3.60;99.90
22249;DHT22;67538;52.180;5.646;2024-03-06T04:55:30;3.50;99.90
22249;DHT22;67538;52.180;5.646;2024-03-06T04:57:57;3.50;99.90
22249;DHT22;67538;52.180;5.646;2024-03-06T05:00:24;3.40;99.90
22249;DHT22;67538;52.180;5.646;2024-03-06T05:02:51;3.40;99.90
22249;DHT22;67538;52.180;5.646;2024-03-06T05:05:18;3.40;99.90
22249;DHT22;67538;52.180;5.646;2024-03-06T05:07:45;3.40;99.90
22249;DHT22;67538;52.180;5.646;2024-03-06T05:10:12;3.40;99.90
22249;DHT22;67538;52.180;5.646;2024-03-06T05:12:40;3.50;99.90
22249;DHT22;67538;52.180;5.646;2024-03-06T05:15:09;3.50;99.90
22249;DHT22;67538;52.180;5.646;2024-03-06T05:17:36;3.40;99.90
22249;DHT22;67538;52.180;5.646;2024-03-06T05:20:04;3.50;99.90
22249;DHT22;67538;52.180;5.646;2024-03-06T05:22:31;3.50;99.90
22249;DHT22;67538;52.180;5.646;2024-03-06T05:24:58;3.50;99.90
22249;DHT22;67538;52.180;5.646;2024-03-06T05:27:25;3.40;99.90
22249;DHT22;67538;52.180;5.646;2024-03-06T05:29:54;3.30;99.90
22249;DHT22;67538;52.180;5.646;2024-03-06T05:32:21;3.30;99.90
22249;DHT22;67538;52.180;5.646;2024-03-06T05:34:48;3.30;99.90
22249;DHT22;67538;52.180;5.646;2024-03-06T05:37:15;3.30;99.90
22249;DHT22;67538;52.180;5.646;2024-03-06T05:39:43;3.20;99.90
22249;DHT22;67538;52.180;5.646;2024-03-06T05:42:10;3.20;99.90
22249;DHT22;67538;52.180;5.646;2024-03-06T05:44:37;3.10;99.90
22249;DHT22;67538;52.180;5.646;2024-03-06T05:47:05;3.20;99.90
22249;DHT22;67538;52.180;5.646;2024-03-06T05:49:32;3.20;99.90
22249;DHT22;67538;52.180;5.646;2024-03-06T05:52:00;3.10;99.90
22249;DHT22;67538;52.180;5.646;2024-03-06T05:54:28;3.10;99.90
22249;DHT22;67538;52.180;5.646;2024-03-06T05:56:59;3.10;99.90
22249;DHT22;67538;52.180;5.646;2024-03-06T05:59:26;3.10;99.90
22249;DHT22;67538;52.180;5.646;2024-03-06T06:01:54;3.00;99.90
22249;DHT22;67538;52.180;5.646;2024-03-06T06:04:23;3.00;99.90
22249;DHT22;67538;52.180;5.646;2024-03-06T06:06:51;3.00;99.90
22249;DHT22;67538;52.180;5.646;2024-03-06T06:09:18;2.90;99.90
22249;DHT22;67538;52.180;5.646;2024-03-06T06:11:45;2.90;99.90
22249;DHT22;67538;52.180;5.646;2024-03-06T06:14:13;2.90;99.90
22249;DHT22;67538;52.180;5.646;2024-03-06T06:16:41;2.90;99.90
22249;DHT22;67538;52.180;5.646;2024-03-06T06:19:08;2.80;99.90
22249;DHT22;67538;52.180;5.646;2024-03-06T06:21:36;2.80;99.90
22249;DHT22;67538;52.180;5.646;2024-03-06T06:24:04;2.80;99.90
22249;DHT22;67538;52.180;5.646;2024-03-06T06:26:31;2.80;99.90
22249;DHT22;67538;52.180;5.646;2024-03-06T06:28:59;2.80;99.90
22249;DHT22;67538;52.180;5.646;2024-03-06T06:31:26;2.90;99.90
22249;DHT22;67538;52.180;5.646;2024-03-06T06:33:53;2.90;99.90
22249;DHT22;67538;52.180;5.646;2024-03-06T06:36:20;3.00;99.90
22249;DHT22;67538;52.180;5.646;2024-03-06T06:38:48;3.00;99.90
22249;DHT22;67538;52.180;5.646;2024-03-06T06:41:17;3.10;99.90
22249;DHT22;67538;52.180;5.646;2024-03-06T06:43:44;3.20;99.90
22249;DHT22;67538;52.180;5.646;2024-03-06T06:46:11;3.20;99.90
22249;DHT22;67538;52.180;5.646;2024-03-06T06:48:38;3.30;99.90
22249;DHT22;67538;52.180;5.646;2024-03-06T06:51:05;3.40;99.90
22249;DHT22;67538;52.180;5.646;2024-03-06T06:53:33;3.50;99.90
22249;DHT22;67538;52.180;5.646;2024-03-06T06:56:01;3.60;99.90
22249;DHT22;67538;52.180;5.646;2024-03-06T06:58:29;3.60;99.90
22249;DHT22;67538;52.180;5.646;2024-03-06T07:00:56;3.60;99.90
22249;DHT22;67538;52.180;5.646;2024-03-06T07:03:24;3.60;99.90
22249;DHT22;67538;52.180;5.646;2024-03-06T07:05:55;3.70;99.90
22249;DHT22;67538;52.180;5.646;2024-03-06T07:08:22;3.80;99.90
22249;DHT22;67538;52.180;5.646;2024-03-06T07:10:49;3.90;99.90
22249;DHT22;67538;52.180;5.646;2024-03-06T07:13:20;4.10;99.90
22249;DHT22;67538;52.180;5.646;2024-03-06T07:15:47;4.20;99.90
22249;DHT22;67538;52.180;5.646;2024-03-06T07:18:14;4.30;99.90
22249;DHT22;67538;52.180;5.646;2024-03-06T07:20:41;4.60;99.90
22249;DHT22;67538;52.180;5.646;2024-03-06T07:23:08;5.70;99.90
22249;DHT22;67538;52.180;5.646;2024-03-06T07:25:35;7.40;99.90
22249;DHT22;67538;52.180;5.646;2024-03-06T07:28:02;8.90;99.90
22249;DHT22;67538;52.180;5.646;2024-03-06T07:30:31;9.80;99.90
22249;DHT22;67538;52.180;5.646;2024-03-06T07:32:58;10.70;99.90
22249;DHT22;67538;52.180;5.646;2024-03-06T07:35:25;10.80;99.90
22249;DHT22;67538;52.180;5.646;2024-03-06T07:37:52;11.00;99.90
22249;DHT22;67538;52.180;5.646;2024-03-06T07:40:19;10.90;99.90
22249;DHT22;67538;52.180;5.646;2024-03-06T07:42:46;11.80;99.90
22249;DHT22;67538;52.180;5.646;2024-03-06T07:45:14;13.10;99.90
22249;DHT22;67538;52.180;5.646;2024-03-06T07:47:42;14.00;99.90
22249;DHT22;67538;52.180;5.646;2024-03-06T07:50:11;14.80;99.90
22249;DHT22;67538;52.180;5.646;2024-03-06T07:52:38;15.50;99.90
22249;DHT22;67538;52.180;5.646;2024-03-06T07:55:05;16.10;99.90
22249;DHT22;67538;52.180;5.646;2024-03-06T07:57:32;16.60;99.90
22249;DHT22;67538;52.180;5.646;2024-03-06T07:59:59;16.80;99.90
22249;DHT22;67538;52.180;5.646;2024-03-06T08:02:27;16.80;99.90
22249;DHT22;67538;52.180;5.646;2024-03-06T08:04:55;17.10;99.90
22249;DHT22;67538;52.180;5.646;2024-03-06T08:07:22;16.90;99.90
22249;DHT22;67538;52.180;5.646;2024-03-06T08:09:49;16.90;99.90
22249;DHT22;67538;52.180;5.646;2024-03-06T08:12:16;16.20;99.90
22249;DHT22;67538;52.180;5.646;2024-03-06T08:14:43;15.70;99.90
22249;DHT22;67538;52.180;5.646;2024-03-06T08:17:10;16.40;99.90
22249;DHT22;67538;52.180;5.646;2024-03-06T08:19:37;16.10;99.90
22249;DHT22;67538;52.180;5.646;2024-03-06T08:22:06;16.20;99.90
22249;DHT22;67538;52.180;5.646;2024-03-06T08:24:33;15.90;99.90
22249;DHT22;67538;52.180;5.646;2024-03-06T08:27:00;15.20;99.90
22249;DHT22;67538;52.180;5.646;2024-03-06T08:29:27;14.80;99.90
22249;DHT22;67538;52.180;5.646;2024-03-06T08:31:54;15.00;99.90
22249;DHT22;67538;52.180;5.646;2024-03-06T08:34:23;14.70;99.90
22249;DHT22;67538;52.180;5.646;2024-03-06T08:36:50;14.70;99.90
22249;DHT22;67538;52.180;5.646;2024-03-06T08:39:20;14.00;99.90
22249;DHT22;67538;52.180;5.646;2024-03-06T08:41:47;13.40;99.90
22249;DHT22;67538;52.180;5.646;2024-03-06T08:44:14;12.90;99.90
22249;DHT22;67538;52.180;5.646;2024-03-06T08:46:41;13.00;99.90
22249;DHT22;67538;52.180;5.646;2024-03-06T08:49:08;13.40;99.90
22249;DHT22;67538;52.180;5.646;2024-03-06T08:51:36;13.40;99.90
22249;DHT22;67538;52.180;5.646;2024-03-06T08:54:03;13.60;99.90
22249;DHT22;67538;52.180;5.646;2024-03-06T08:56:32;14.70;99.90
22249;DHT22;67538;52.180;5.646;2024-03-06T08:59:00;15.20;99.90
22249;DHT22;67538;52.180;5.646;2024-03-06T09:01:28;15.10;99.90
22249;DHT22;67538;52.180;5.646;2024-03-06T09:03:55;14.30;99.90
22249;DHT22;67538;52.180;5.646;2024-03-06T09:06:23;13.60;99.90
22249;DHT22;67538;52.180;5.646;2024-03-06T09:08:50;14.20;99.90
22249;DHT22;67538;52.180;5.646;2024-03-06T09:11:17;14.90;99.90
22249;DHT22;67538;52.180;5.646;2024-03-06T09:13:45;14.80;99.90
22249;DHT22;67538;52.180;5.646;2024-03-06T09:16:12;15.30;99.90
22249;DHT22;67538;52.180;5.646;2024-03-06T09:18:39;15.60;99.90
22249;DHT22;67538;52.180;5.646;2024-03-06T09:21:07;15.20;99.90
22249;DHT22;67538;52.180;5.646;2024-03-06T09:23:34;14.60;99.90
22249;DHT22;67538;52.180;5.646;2024-03-06T09:26:01;14.00;99.90
22249;DHT22;67538;52.180;5.646;2024-03-06T09:28:28;13.90;99.90
22249;DHT22;67538;52.180;5.646;2024-03-06T09:30:56;14.00;99.90
22249;DHT22;67538;52.180;5.646;2024-03-06T09:33:23;13.60;99.90
22249;DHT22;67538;52.180;5.646;2024-03-06T09:35:50;12.80;99.90
22249;DHT22;67538;52.180;5.646;2024-03-06T09:38:17;12.60;99.90
22249;DHT22;67538;52.180;5.646;2024-03-06T09:40:44;13.00;99.90
22249;DHT22;67538;52.180;5.646;2024-03-06T09:43:12;13.10;99.90
22249;DHT22;67538;52.180;5.646;2024-03-06T09:45:39;13.20;99.90
22249;DHT22;67538;52.180;5.646;2024-03-06T09:48:08;13.40;99.90
22249;DHT22;67538;52.180;5.646;2024-03-06T09:50:36;13.00;99.90
22249;DHT22;67538;52.180;5.646;2024-03-06T09:53:08;12.60;99.90
22249;DHT22;67538;52.180;5.646;2024-03-06T09:55:37;11.90;99.90
22249;DHT22;67538;52.180;5.646;2024-03-06T09:58:14;11.20;99.90
22249;DHT22;67538;52.180;5.646;2024-03-06T10:00:41;10.80;99.90
22249;DHT22;67538;52.180;5.646;2024-03-06T10:03:11;10.90;99.90
22249;DHT22;67538;52.180;5.646;2024-03-06T10:05:38;11.40;99.90
22249;DHT22;67538;52.180;5.646;2024-03-06T10:08:06;11.50;99.90
22249;DHT22;67538;52.180;5.646;2024-03-06T10:10:33;11.20;99.90
22249;DHT22;67538;52.180;5.646;2024-03-06T10:13:00;10.90;99.90
22249;DHT22;67538;52.180;5.646;2024-03-06T10:15:27;11.00;99.90
22249;DHT22;67538;52.180;5.646;2024-03-06T10:18:20;10.80;99.90
22249;DHT22;67538;52.180;5.646;2024-03-06T10:20:47;10.70;99.90
22249;DHT22;67538;52.180;5.646;2024-03-06T10:23:15;10.70;99.90
22249;DHT22;67538;52.180;5.646;2024-03-06T10:25:43;10.60;99.90
22249;DHT22;67538;52.180;5.646;2024-03-06T10:28:11;10.80;99.90
22249;DHT22;67538;52.180;5.646;2024-03-06T10:30:39;11.30;99.90
22249;DHT22;67538;52.180;5.646;2024-03-06T10:33:08;11.60;99.90
22249;DHT22;67538;52.180;5.646;2024-03-06T10:35:37;11.20;99.90
22249;DHT22;67538;52.180;5.646;2024-03-06T10:38:06;11.00;99.90
22249;DHT22;67538;52.180;5.646;2024-03-06T10:40:34;11.30;99.90
22249;DHT22;67538;52.180;5.646;2024-03-06T10:43:03;11.40;99.90
22249;DHT22;67538;52.180;5.646;2024-03-06T10:45:40;11.30;99.90
22249;DHT22;67538;52.180;5.646;2024-03-06T10:48:08;11.30;99.90
22249;DHT22;67538;52.180;5.646;2024-03-06T10:50:39;11.60;99.90
22249;DHT22;67538;52.180;5.646;2024-03-06T10:53:09;12.30;99.90
22249;DHT22;67538;52.180;5.646;2024-03-06T10:55:37;13.40;99.90
22249;DHT22;67538;52.180;5.646;2024-03-06T10:58:05;13.90;99.90
22249;DHT22;67538;52.180;5.646;2024-03-06T11:00:36;13.60;99.90
22249;DHT22;67538;52.180;5.646;2024-03-06T11:03:05;13.60;99.90
22249;DHT22;67538;52.180;5.646;2024-03-06T11:05:36;13.50;99.90
22249;DHT22;67538;52.180;5.646;2024-03-06T11:08:07;13.60;99.90
22249;DHT22;67538;52.180;5.646;2024-03-06T11:10:36;13.30;99.90
22249;DHT22;67538;52.180;5.646;2024-03-06T11:13:03;12.70;99.90
22249;DHT22;67538;52.180;5.646;2024-03-06T11:15:31;12.40;99.90
22249;DHT22;67538;52.180;5.646;2024-03-06T11:17:58;12.40;99.90
22249;DHT22;67538;52.180;5.646;2024-03-06T11:20:25;12.70;99.90
22249;DHT22;67538;52.180;5.646;2024-03-06T11:23:07;12.60;99.90
22249;DHT22;67538;52.180;5.646;2024-03-06T11:26:01;12.70;99.90
22249;DHT22;67538;52.180;5.646;2024-03-06T11:28:30;12.70;99.90
22249;DHT22;67538;52.180;5.646;2024-03-06T11:30:58;12.40;99.90
22249;DHT22;67538;52.180;5.646;2024-03-06T11:33:34;12.50;99.90
22249;DHT22;67538;52.180;5.646;2024-03-06T11:36:16;12.50;99.90
22249;DHT22;67538;52.180;5.646;2024-03-06T11:38:51;12.30;99.90
22249;DHT22;67538;52.180;5.646;2024-03-06T11:41:20;12.20;99.90
22249;DHT22;67538;52.180;5.646;2024-03-06T11:43:48;12.00;99.90
22249;DHT22;67538;52.180;5.646;2024-03-06T11:46:19;12.10;99.90
22249;DHT22;67538;52.180;5.646;2024-03-06T11:48:52;12.20;99.90
22249;DHT22;67538;52.180;5.646;2024-03-06T11:51:19;12.10;99.90
22249;DHT22;67538;52.180;5.646;2024-03-06T11:53:51;12.10;99.90
22249;DHT22;67538;52.180;5.646;2024-03-06T11:56:19;12.00;99.90
22249;DHT22;67538;52.180;5.646;2024-03-06T11:58:47;11.80;99.90
22249;DHT22;67538;52.180;5.646;2024-03-06T12:01:14;12.10;99.90
22249;DHT22;67538;52.180;5.646;2024-03-06T12:03:41;12.40;99.90
22249;DHT22;67538;52.180;5.646;2024-03-06T12:06:09;12.60;99.90
22249;DHT22;67538;52.180;5.646;2024-03-06T12:08:36;13.00;99.90
22249;DHT22;67538;52.180;5.646;2024-03-06T12:11:06;12.80;99.90
22249;DHT22;67538;52.180;5.646;2024-03-06T12:13:34;12.50;99.90
22249;DHT22;67538;52.180;5.646;2024-03-06T12:16:05;12.00;99.90
22249;DHT22;67538;52.180;5.646;2024-03-06T12:18:33;12.20;99.90
22249;DHT22;67538;52.180;5.646;2024-03-06T12:21:01;12.10;99.90
22249;DHT22;67538;52.180;5.646;2024-03-06T12:23:29;12.30;99.90
22249;DHT22;67538;52.180;5.646;2024-03-06T12:26:08;12.50;99.90
22249;DHT22;67538;52.180;5.646;2024-03-06T12:28:36;12.70;99.90
22249;DHT22;67538;52.180;5.646;2024-03-06T12:31:04;12.80;99.90
22249;DHT22;67538;52.180;5.646;2024-03-06T12:33:34;12.80;99.90
22249;DHT22;67538;52.180;5.646;2024-03-06T12:36:05;12.60;99.90
22249;DHT22;67538;52.180;5.646;2024-03-06T12:38:36;12.50;99.90
22249;DHT22;67538;52.180;5.646;2024-03-06T12:41:03;12.60;99.90
22249;DHT22;67538;52.180;5.646;2024-03-06T12:43:33;12.80;99.90
22249;DHT22;67538;52.180;5.646;2024-03-06T12:46:00;12.60;99.90
22249;DHT22;67538;52.180;5.646;2024-03-06T12:48:28;12.40;99.90
22249;DHT22;67538;52.180;5.646;2024-03-06T12:50:55;12.40;99.90
22249;DHT22;67538;52.180;5.646;2024-03-06T12:53:30;12.50;99.90
22249;DHT22;67538;52.180;5.646;2024-03-06T12:55:57;12.50;99.90
22249;DHT22;67538;52.180;5.646;2024-03-06T12:58:24;12.70;99.90
22249;DHT22;67538;52.180;5.646;2024-03-06T13:00:52;13.00;99.90
22249;DHT22;67538;52.180;5.646;2024-03-06T13:03:20;13.00;99.90
22249;DHT22;67538;52.180;5.646;2024-03-06T13:05:47;13.00;99.90
22249;DHT22;67538;52.180;5.646;2024-03-06T13:08:14;13.00;99.90
22249;DHT22;67538;52.180;5.646;2024-03-06T13:10:42;13.00;99.90
22249;DHT22;67538;52.180;5.646;2024-03-06T13:13:09;13.10;99.90
22249;DHT22;67538;52.180;5.646;2024-03-06T13:15:36;13.40;99.90
22249;DHT22;67538;52.180;5.646;2024-03-06T13:18:05;13.60;99.90
22249;DHT22;67538;52.180;5.646;2024-03-06T13:20:33;13.80;99.90
22249;DHT22;67538;52.180;5.646;2024-03-06T13:23:00;13.70;99.90
22249;DHT22;67538;52.180;5.646;2024-03-06T13:25:27;13.90;99.90
22249;DHT22;67538;52.180;5.646;2024-03-06T13:27:54;13.70;99.90
22249;DHT22;67538;52.180;5.646;2024-03-06T13:30:21;13.40;99.90
22249;DHT22;67538;52.180;5.646;2024-03-06T13:32:48;13.00;99.90
22249;DHT22;67538;52.180;5.646;2024-03-06T13:35:17;12.90;99.90
22249;DHT22;67538;52.180;5.646;2024-03-06T13:37:44;12.90;99.90
22249;DHT22;67538;52.180;5.646;2024-03-06T13:40:12;13.10;99.90
22249;DHT22;67538;52.180;5.646;2024-03-06T13:42:40;13.40;99.90
22249;DHT22;67538;52.180;5.646;2024-03-06T13:45:07;13.70;99.90
22249;DHT22;67538;52.180;5.646;2024-03-06T13:47:37;13.60;99.90
22249;DHT22;67538;52.180;5.646;2024-03-06T13:50:06;13.60;99.90
22249;DHT22;67538;52.180;5.646;2024-03-06T13:52:35;13.50;99.90
22249;DHT22;67538;52.180;5.646;2024-03-06T13:55:03;13.20;99.90
22249;DHT22;67538;52.180;5.646;2024-03-06T13:57:31;13.00;99.90
22249;DHT22;67538;52.180;5.646;2024-03-06T14:00:00;12.80;99.90
22249;DHT22;67538;52.180;5.646;2024-03-06T14:02:27;12.70;99.90
22249;DHT22;67538;52.180;5.646;2024-03-06T14:04:54;12.90;99.90
22249;DHT22;67538;52.180;5.646;2024-03-06T14:07:21;12.90;99.90
22249;DHT22;67538;52.180;5.646;2024-03-06T14:09:50;12.80;99.90
22249;DHT22;67538;52.180;5.646;2024-03-06T14:12:17;12.70;99.90
22249;DHT22;67538;52.180;5.646;2024-03-06T14:14:44;12.60;99.90
22249;DHT22;67538;52.180;5.646;2024-03-06T14:17:12;12.80;99.90
22249;DHT22;67538;52.180;5.646;2024-03-06T14:19:39;13.00;99.90
22249;DHT22;67538;52.180;5.646;2024-03-06T14:22:07;13.20;99.90
22249;DHT22;67538;52.180;5.646;2024-03-06T14:24:34;13.30;99.90
22249;DHT22;67538;52.180;5.646;2024-03-06T14:27:03;13.30;99.90
22249;DHT22;67538;52.180;5.646;2024-03-06T14:29:31;13.10;99.90
22249;DHT22;67538;52.180;5.646;2024-03-06T14:31:58;12.80;99.90
22249;DHT22;67538;52.180;5.646;2024-03-06T14:34:25;12.70;99.90
22249;DHT22;67538;52.180;5.646;2024-03-06T14:36:52;12.40;99.90
22249;DHT22;67538;52.180;5.646;2024-03-06T14:39:19;12.40;99.90
22249;DHT22;67538;52.180;5.646;2024-03-06T14:41:49;12.20;99.90
22249;DHT22;67538;52.180;5.646;2024-03-06T14:44:17;12.20;99.90
22249;DHT22;67538;52.180;5.646;2024-03-06T14:46:46;12.20;99.90
22249;DHT22;67538;52.180;5.646;2024-03-06T14:49:13;12.20;99.90
22249;DHT22;67538;52.180;5.646;2024-03-06T14:51:42;12.20;99.90
22249;DHT22;67538;52.180;5.646;2024-03-06T14:54:10;12.40;99.90
22249;DHT22;67538;52.180;5.646;2024-03-06T14:56:37;12.60;99.90
22249;DHT22;67538;52.180;5.646;2024-03-06T14:59:04;12.60;99.90
22249;DHT22;67538;52.180;5.646;2024-03-06T15:01:32;12.50;99.90
22249;DHT22;67538;52.180;5.646;2024-03-06T15:03:59;12.40;99.90
22249;DHT22;67538;52.180;5.646;2024-03-06T15:06:26;12.30;99.90
22249;DHT22;67538;52.180;5.646;2024-03-06T15:08:53;12.30;99.90
22249;DHT22;67538;52.180;5.646;2024-03-06T15:11:21;12.20;99.90
22249;DHT22;67538;52.180;5.646;2024-03-06T15:13:49;12.10;99.90
22249;DHT22;67538;52.180;5.646;2024-03-06T15:16:16;12.00;99.90
22249;DHT22;67538;52.180;5.646;2024-03-06T15:18:45;12.00;99.90
22249;DHT22;67538;52.180;5.646;2024-03-06T15:21:14;11.90;99.90
22249;DHT22;67538;52.180;5.646;2024-03-06T15:23:41;11.80;99.90
22249;DHT22;67538;52.180;5.646;2024-03-06T15:26:08;11.70;99.90
22249;DHT22;67538;52.180;5.646;2024-03-06T15:28:35;11.70;99.90
22249;DHT22;67538;52.180;5.646;2024-03-06T15:31:02;11.80;99.90
22249;DHT22;67538;52.180;5.646;2024-03-06T15:33:29;11.80;99.90
22249;DHT22;67538;52.180;5.646;2024-03-06T15:35:58;11.80;99.90
22249;DHT22;67538;52.180;5.646;2024-03-06T15:38:26;11.80;99.90
22249;DHT22;67538;52.180;5.646;2024-03-06T15:40:53;11.80;99.90